Time;durP1;ratioP1;P1;durP2;ratioP2;P2;SDS_P1;SDS_P2;PMS_P1;PMS_P2;Temp;Humidity;BMP_temperature;BMP_pressure;BME280_temperature;BME280_humidity;BME280_pressure;Samples;Min_cycle;Max_cycle;Signal;HPM_P1;HPM_P2
2022/09/24 00:00:24;;;;;;;13.38;11.52;;;9.90;99.90;;;;;;2098540;28;20028;-72
2022/09/24 00:01:33;;;;;;;14.80;11.73;;;9.80;99.90;;;;;;2111035;28;20056;-73
2022/09/24 00:02:34;;;;;;;14.65;11.50;;;9.90;99.90;;;;;;2100657;28;20028;-74
2022/09/24 00:03:34;;;;;;;13.00;11.23;;;9.80;99.90;;;;;;2102579;28;20037;-73
2022/09/24 00:04:35;;;;;;;15.27;12.25;;;9.80;99.90;;;;;;2111776;28;20048;-73
2022/09/24 00:05:40;;;;;;;14.15;11.80;;;9.90;99.90;;;;;;2109335;28;20028;-72
2022/09/24 00:06:46;;;;;;;14.68;11.85;;;9.80;99.90;;;;;;2111692;28;20024;-74
2022/09/24 00:07:47;;;;;;;15.25;12.02;;;9.80;99.90;;;;;;2096847;28;20037;-74
2022/09/24 00:08:53;;;;;;;14.80;11.90;;;9.80;99.90;;;;;;2096624;28;20636;-74
2022/09/24 00:09:54;;;;;;;14.43;12.10;;;9.80;99.90;;;;;;2105583;28;20077;-74
2022/09/24 00:10:58;;;;;;;14.43;11.90;;;9.90;99.90;;;;;;2105476;28;20020;-74
2022/09/24 00:11:59;;;;;;;14.00;12.02;;;9.80;99.90;;;;;;2104830;28;20035;-73
2022/09/24 00:13:00;;;;;;;15.65;11.90;;;9.80;99.90;;;;;;2105533;28;20521;-72
2022/09/24 00:14:01;;;;;;;15.48;11.25;;;9.80;99.90;;;;;;2105709;28;20027;-74
2022/09/24 00:15:03;;;;;;;14.13;11.30;;;9.80;99.90;;;;;;2105564;28;20039;-74
2022/09/24 00:16:07;;;;;;;14.38;11.50;;;9.80;99.90;;;;;;2105784;28;20032;-74
2022/09/24 00:17:07;;;;;;;13.88;11.90;;;9.80;99.90;;;;;;2104246;28;20024;-73
2022/09/24 00:18:10;;;;;;;15.10;11.80;;;9.80;99.90;;;;;;2103947;28;20482;-74
2022/09/24 00:19:12;;;;;;;15.23;12.10;;;9.80;99.90;;;;;;2098825;28;20042;-74
2022/09/24 00:20:13;;;;;;;14.90;12.10;;;9.80;99.90;;;;;;2104504;28;20046;-73
2022/09/24 00:21:23;;;;;;;14.13;11.82;;;9.80;99.90;;;;;;2105277;28;20652;-74
2022/09/24 00:22:24;;;;;;;14.55;11.77;;;9.80;99.90;;;;;;2096559;28;20475;-74
2022/09/24 00:23:25;;;;;;;12.98;11.15;;;9.80;99.90;;;;;;2096662;28;20048;-74
2022/09/24 00:27:06;;;;;;;15.50;11.30;;;9.80;99.90;;;;;;2105557;28;20505;-74
2022/09/24 00:28:07;;;;;;;13.63;12.10;;;9.80;99.90;;;;;;2105203;28;20028;-72
2022/09/24 00:29:10;;;;;;;14.18;11.55;;;9.80;99.90;;;;;;2105775;28;20483;-74
2022/09/24 00:30:11;;;;;;;14.82;12.18;;;9.80;99.90;;;;;;2107700;28;20050;-72
2022/09/24 00:31:12;;;;;;;14.00;11.75;;;9.80;99.90;;;;;;2108129;28;20099;-72
2022/09/24 00:32:12;;;;;;;14.25;12.02;;;9.80;99.90;;;;;;2085948;28;20273;-72
2022/09/24 00:33:13;;;;;;;13.70;11.55;;;9.80;99.90;;;;;;2082224;28;20048;-72
2022/09/24 00:34:14;;;;;;;13.57;11.27;;;9.80;99.90;;;;;;2099605;28;20039;-74
2022/09/24 00:35:15;;;;;;;13.98;11.55;;;9.80;99.90;;;;;;2082782;28;20049;-74
2022/09/24 00:36:15;;;;;;;13.02;11.27;;;9.80;99.90;;;;;;2082994;28;20792;-72
2022/09/24 00:37:18;;;;;;;13.68;10.95;;;9.80;99.90;;;;;;2099662;28;20059;-74
2022/09/24 00:38:18;;;;;;;12.80;10.68;;;9.80;99.90;;;;;;2090710;28;20108;-74
2022/09/24 00:39:19;;;;;;;13.05;11.20;;;9.80;99.90;;;;;;2090376;28;20025;-73
2022/09/24 00:40:20;;;;;;;13.70;11.07;;;9.80;99.90;;;;;;2104336;28;20470;-74
2022/09/24 00:41:25;;;;;;;12.25;10.95;;;9.80;99.90;;;;;;2096509;28;20017;-73
2022/09/24 00:42:28;;;;;;;15.18;11.60;;;9.80;99.90;;;;;;2088486;28;20557;-73
2022/09/24 00:43:35;;;;;;;13.70;11.77;;;9.80;99.90;;;;;;2088732;28;20280;-73
2022/09/24 00:44:50;;;;;;;15.30;11.88;;;9.80;99.90;;;;;;2088449;28;20029;-73
2022/09/24 00:46:02;;;;;;;14.48;12.15;;;9.80;99.90;;;;;;2088655;28;20047;-73
2022/09/24 00:47:03;;;;;;;16.42;12.48;;;9.80;99.90;;;;;;2084877;28;20018;-74
2022/09/24 00:48:03;;;;;;;16.67;13.00;;;9.70;99.90;;;;;;2093592;28;20107;-73
2022/09/24 00:49:13;;;;;;;15.55;13.02;;;9.70;99.90;;;;;;2090366;28;20017;-73
2022/09/24 00:50:30;;;;;;;14.82;12.60;;;9.70;99.90;;;;;;2087816;28;20127;-72
2022/09/24 00:51:32;;;;;;;14.45;12.80;;;9.70;99.90;;;;;;2095480;28;20400;-74
2022/09/24 00:52:43;;;;;;;16.02;13.15;;;9.70;99.90;;;;;;2088305;28;20482;-74
2022/09/24 00:53:45;;;;;;;15.38;13.55;;;9.70;99.90;;;;;;2087587;28;20119;-73
2022/09/24 00:54:47;;;;;;;15.85;13.85;;;9.60;99.90;;;;;;2090873;28;20029;-74
2022/09/24 00:55:53;;;;;;;16.20;14.23;;;9.60;99.90;;;;;;2092490;28;20024;-74
2022/09/24 00:56:58;;;;;;;16.17;13.95;;;9.60;99.90;;;;;;2092849;28;20025;-72
2022/09/24 00:58:04;;;;;;;16.73;13.93;;;9.60;99.90;;;;;;2105245;28;20470;-74
2022/09/24 00:59:10;;;;;;;17.88;13.63;;;9.60;99.90;;;;;;2105379;28;20482;-74
2022/09/24 01:00:11;;;;;;;16.50;14.00;;;9.50;99.90;;;;;;2105220;28;20028;-74
2022/09/24 01:01:13;;;;;;;15.98;13.73;;;9.50;99.90;;;;;;2105056;28;20081;-72
2022/09/24 01:02:13;;;;;;;16.70;13.75;;;9.50;99.90;;;;;;2096207;28;20099;-73
2022/09/24 01:03:18;;;;;;;14.65;12.90;;;9.50;99.90;;;;;;2095996;28;20380;-72
2022/09/24 01:04:20;;;;;;;15.77;13.20;;;9.50;99.90;;;;;;2104878;28;20048;-73
2022/09/24 01:05:21;;;;;;;15.23;12.90;;;9.40;99.90;;;;;;2105000;28;20195;-73
2022/09/24 01:06:23;;;;;;;14.40;12.25;;;9.40;99.90;;;;;;2095682;28;20024;-72
2022/09/24 01:07:24;;;;;;;14.23;12.57;;;9.40;99.90;;;;;;2095938;28;20199;-74
2022/09/24 01:08:24;;;;;;;14.50;12.15;;;9.30;99.90;;;;;;2104762;28;20038;-72
2022/09/24 01:09:26;;;;;;;13.77;12.02;;;9.30;99.90;;;;;;2104650;28;20070;-73
2022/09/24 01:11:11;;;;;;;14.40;12.07;;;9.30;99.90;;;;;;2104980;28;20028;-73
2022/09/24 01:12:27;;;;;;;14.07;11.48;;;9.30;99.90;;;;;;2074006;28;20034;-72
2022/09/24 01:13:40;;;;;;;13.13;11.15;;;9.20;99.90;;;;;;2103658;28;20754;-73
2022/09/24 01:15:07;;;;;;;13.52;11.73;;;9.20;99.90;;;;;;2102359;28;20024;-72
2022/09/24 01:16:12;;;;;;;13.30;11.30;;;9.20;99.90;;;;;;2078676;28;20817;-73
2022/09/24 01:17:25;;;;;;;15.93;12.25;;;9.20;99.90;;;;;;2088174;28;20144;-73
2022/09/24 01:18:39;;;;;;;14.07;11.70;;;9.20;99.90;;;;;;2079590;28;20491;-72
2022/09/24 01:20:13;;;;;;;14.50;11.85;;;9.20;99.90;;;;;;2081685;28;20029;-73
2022/09/24 01:21:26;;;;;;;14.82;11.70;;;9.20;99.90;;;;;;2057360;28;20039;-72
2022/09/24 01:22:56;;;;;;;15.43;11.68;;;9.20;99.90;;;;;;2088539;28;20025;-73
2022/09/24 01:24:13;;;;;;;13.30;11.23;;;9.20;99.90;;;;;;2088551;28;20698;-74
2022/09/24 01:25:17;;;;;;;13.05;11.32;;;9.10;99.90;;;;;;2088684;28;20278;-74
2022/09/24 01:26:29;;;;;;;12.88;11.25;;;9.10;99.90;;;;;;2079742;28;20552;-73
2022/09/24 01:28:05;;;;;;;12.82;10.48;;;9.10;99.90;;;;;;2081358;28;20520;-71
2022/09/24 01:29:19;;;;;;;14.88;11.48;;;9.10;99.90;;;;;;2077028;28;20100;-74
2022/09/24 01:30:20;;;;;;;13.55;11.10;;;9.10;99.90;;;;;;2082975;28;20037;-74
2022/09/24 01:31:29;;;;;;;13.45;11.35;;;9.10;99.90;;;;;;2096148;28;20024;-74
2022/09/24 01:32:42;;;;;;;13.05;10.60;;;9.10;99.90;;;;;;2096395;28;20047;-73
2022/09/24 01:33:48;;;;;;;12.65;10.60;;;9.10;99.90;;;;;;2096593;28;20032;-74
2022/09/24 01:34:57;;;;;;;13.18;10.35;;;9.10;99.90;;;;;;2096600;28;20582;-73
2022/09/24 01:36:07;;;;;;;13.52;10.40;;;9.10;99.90;;;;;;2091958;28;20475;-73
2022/09/24 01:37:08;;;;;;;12.85;10.63;;;9.10;99.90;;;;;;2100491;28;20048;-72
2022/09/24 01:38:14;;;;;;;12.32;10.45;;;9.10;99.90;;;;;;2097888;28;20061;-73
2022/09/24 01:39:17;;;;;;;12.45;10.57;;;9.10;99.90;;;;;;2103389;28;20036;-74
2022/09/24 01:40:21;;;;;;;14.45;10.45;;;9.10;99.90;;;;;;2104716;28;20036;-73
2022/09/24 01:41:22;;;;;;;12.45;10.57;;;9.10;99.90;;;;;;2104446;28;20489;-73
2022/09/24 01:42:26;;;;;;;13.20;11.18;;;9.10;99.90;;;;;;2104810;28;20042;-74
2022/09/24 01:43:27;;;;;;;12.10;10.80;;;9.10;99.90;;;;;;2101010;28;20028;-73
2022/09/24 01:44:28;;;;;;;13.88;10.75;;;9.10;99.90;;;;;;2103333;28;20040;-74
2022/09/24 01:45:30;;;;;;;12.23;10.55;;;9.10;99.90;;;;;;2097110;28;20068;-73
2022/09/24 01:46:31;;;;;;;11.90;10.57;;;9.10;99.90;;;;;;2103066;28;20027;-73
2022/09/24 01:47:38;;;;;;;12.70;10.57;;;9.10;99.90;;;;;;2096144;28;20032;-73
2022/09/24 01:48:40;;;;;;;14.02;11.10;;;9.10;99.90;;;;;;2096294;28;20025;-72
2022/09/24 01:49:40;;;;;;;13.43;10.90;;;9.10;99.90;;;;;;2096445;28;20028;-74
2022/09/24 01:51:10;;;;;;;12.38;10.50;;;9.10;99.90;;;;;;2096275;28;20056;-73
2022/09/24 01:52:15;;;;;;;12.13;10.70;;;9.10;99.90;;;;;;2091129;28;20047;-73
2022/09/24 01:53:23;;;;;;;13.13;10.77;;;9.20;99.90;;;;;;2096228;28;20108;-73
2022/09/24 01:54:33;;;;;;;12.48;10.73;;;9.20;99.90;;;;;;2087855;28;20113;-72
2022/09/24 01:55:44;;;;;;;11.90;10.10;;;9.20;99.90;;;;;;2087911;28;20146;-72
2022/09/24 01:56:50;;;;;;;13.18;10.35;;;9.20;99.90;;;;;;2088086;28;20029;-73
2022/09/24 01:58:04;;;;;;;12.27;10.30;;;9.20;99.90;;;;;;2088002;28;20033;-74
2022/09/24 01:59:29;;;;;;;13.50;10.93;;;9.20;99.90;;;;;;2087784;28;20032;-73
2022/09/24 02:00:29;;;;;;;12.80;10.63;;;9.20;99.90;;;;;;2088015;28;20037;-74
2022/09/24 02:01:40;;;;;;;12.65;10.23;;;9.20;99.90;;;;;;2088084;28;20032;-73
2022/09/24 02:03:06;;;;;;;11.65;10.40;;;9.20;99.90;;;;;;2088482;28;20422;-74
2022/09/24 02:04:15;;;;;;;12.00;10.20;;;9.20;99.90;;;;;;2071441;28;20030;-74
2022/09/24 02:05:37;;;;;;;11.55;10.27;;;9.20;99.90;;;;;;2073567;28;20108;-74
2022/09/24 02:06:46;;;;;;;12.23;10.18;;;9.20;99.90;;;;;;2088130;28;20029;-74
2022/09/24 02:07:57;;;;;;;11.52;9.88;;;9.20;99.90;;;;;;2088488;28;20048;-74
2022/09/24 02:08:58;;;;;;;12.00;10.18;;;9.20;99.90;;;;;;2088586;28;20025;-73
2022/09/24 02:09:59;;;;;;;11.30;9.75;;;9.20;99.90;;;;;;2093051;28;20067;-73
2022/09/24 02:11:11;;;;;;;11.85;10.43;;;9.20;99.90;;;;;;2092956;28;20037;-71
2022/09/24 02:12:28;;;;;;;13.40;10.35;;;9.20;99.90;;;;;;2090740;28;20037;-73
2022/09/24 02:13:38;;;;;;;12.93;10.88;;;9.20;99.90;;;;;;2088792;28;20071;-72
2022/09/24 02:14:54;;;;;;;13.77;10.60;;;9.20;99.90;;;;;;2088661;28;20078;-72
2022/09/24 02:15:58;;;;;;;13.70;10.20;;;9.20;99.90;;;;;;2088724;28;20037;-71
2022/09/24 02:17:02;;;;;;;13.30;10.57;;;9.10;99.90;;;;;;2089001;28;20029;-72
2022/09/24 02:18:07;;;;;;;13.35;10.18;;;9.10;99.90;;;;;;2080194;28;20065;-73
2022/09/24 02:19:13;;;;;;;12.65;10.80;;;9.10;99.90;;;;;;2081402;28;20423;-74
2022/09/24 02:20:18;;;;;;;11.52;9.98;;;9.10;99.90;;;;;;2089532;28;20039;-73
2022/09/24 02:21:22;;;;;;;12.00;10.02;;;9.10;99.90;;;;;;2089172;28;20032;-73
2022/09/24 02:22:24;;;;;;;11.88;10.32;;;9.10;99.90;;;;;;2089478;28;20028;-74
2022/09/24 02:23:27;;;;;;;12.23;10.23;;;9.10;99.90;;;;;;2080445;28;20030;-74
2022/09/24 02:24:44;;;;;;;13.32;10.55;;;9.10;99.90;;;;;;2083076;28;20021;-74
2022/09/24 02:25:50;;;;;;;11.70;10.20;;;9.10;99.90;;;;;;2097030;28;20112;-73
2022/09/24 02:26:51;;;;;;;12.63;10.18;;;9.10;99.90;;;;;;2096890;28;20020;-73
2022/09/24 02:27:51;;;;;;;13.57;11.45;;;9.10;99.90;;;;;;2097018;28;20020;-73
2022/09/24 02:28:53;;;;;;;12.88;10.90;;;9.10;99.90;;;;;;2096736;28;20032;-75
2022/09/24 02:29:58;;;;;;;12.35;10.80;;;9.10;99.90;;;;;;2087709;28;20025;-73
2022/09/24 02:31:36;;;;;;;12.52;11.02;;;9.00;99.90;;;;;;2088782;28;20037;-71
2022/09/24 02:32:40;;;;;;;13.40;11.00;;;9.10;99.90;;;;;;2056756;28;20690;-71
2022/09/24 02:35:06;;;;;;;14.38;10.82;;;9.00;99.90;;;;;;2099338;28;20013;-73
2022/09/24 02:36:08;;;;;;;12.90;10.75;;;9.00;99.90;;;;;;2087735;28;20659;-73
2022/09/24 02:37:11;;;;;;;13.30;10.50;;;8.90;99.90;;;;;;2087778;28;20486;-73
2022/09/24 02:38:16;;;;;;;12.15;10.57;;;8.90;99.90;;;;;;2096057;28;20079;-73
2022/09/24 02:39:17;;;;;;;13.35;10.88;;;8.90;99.90;;;;;;2096466;28;20032;-73
2022/09/24 02:40:18;;;;;;;12.23;10.50;;;8.90;99.90;;;;;;2104441;28;20428;-72
2022/09/24 02:41:22;;;;;;;12.15;10.50;;;8.80;99.90;;;;;;2087963;28;20059;-73
2022/09/24 02:42:23;;;;;;;12.02;10.40;;;8.80;99.90;;;;;;2079560;28;20034;-73
2022/09/24 02:43:24;;;;;;;15.88;12.52;;;8.80;99.90;;;;;;2088100;28;20025;-73
2022/09/24 02:44:25;;;;;;;14.38;12.00;;;8.80;99.90;;;;;;2088212;28;20025;-72
2022/09/24 02:45:26;;;;;;;15.10;12.00;;;8.80;99.90;;;;;;2079269;28;20021;-73
2022/09/24 02:46:26;;;;;;;12.82;11.18;;;8.80;99.90;;;;;;2079107;28;20060;-75
2022/09/24 02:47:28;;;;;;;13.13;10.95;;;8.80;99.90;;;;;;2094663;28;20082;-73
2022/09/24 02:48:28;;;;;;;14.15;11.20;;;8.80;99.90;;;;;;2094380;28;20024;-73
2022/09/24 02:49:29;;;;;;;12.07;10.73;;;8.70;99.90;;;;;;2088379;28;20029;-73
2022/09/24 02:50:29;;;;;;;12.75;10.82;;;8.70;99.90;;;;;;2104721;28;20039;-73
2022/09/24 02:51:30;;;;;;;13.60;11.23;;;8.70;99.90;;;;;;2104509;28;20016;-72
2022/09/24 02:52:31;;;;;;;13.38;11.13;;;8.70;99.90;;;;;;2104775;28;20097;-73
2022/09/24 02:53:32;;;;;;;13.68;10.88;;;8.70;99.90;;;;;;2104491;28;20032;-73
2022/09/24 02:54:33;;;;;;;11.95;10.40;;;8.70;99.90;;;;;;2095385;28;20120;-73
2022/09/24 02:55:33;;;;;;;12.07;10.77;;;8.70;99.90;;;;;;2087875;28;20119;-73
2022/09/24 02:56:35;;;;;;;13.00;10.60;;;8.70;99.90;;;;;;2088449;28;20485;-72
2022/09/24 02:57:36;;;;;;;12.00;10.57;;;8.70;99.90;;;;;;2097126;28;20037;-73
2022/09/24 02:58:37;;;;;;;12.68;10.88;;;8.70;99.90;;;;;;2105751;28;20122;-73
2022/09/24 02:59:38;;;;;;;12.75;10.90;;;8.70;99.90;;;;;;2096826;28;20036;-73
2022/09/24 03:00:38;;;;;;;11.50;10.30;;;8.60;99.90;;;;;;2096785;28;20036;-72
2022/09/24 03:01:39;;;;;;;12.55;10.43;;;8.70;99.90;;;;;;2096459;28;20078;-72
2022/09/24 03:02:40;;;;;;;13.82;11.10;;;8.70;99.90;;;;;;2088840;28;20028;-72
2022/09/24 03:03:40;;;;;;;12.18;10.57;;;8.60;99.90;;;;;;2097211;28;20146;-72
2022/09/24 03:04:41;;;;;;;12.75;10.70;;;8.60;99.90;;;;;;2097018;28;20036;-73
2022/09/24 03:05:42;;;;;;;13.00;10.65;;;8.60;99.90;;;;;;2105982;28;20032;-73
2022/09/24 03:06:42;;;;;;;11.85;10.60;;;8.60;99.90;;;;;;2091441;28;20059;-73
2022/09/24 03:07:46;;;;;;;11.40;10.02;;;8.70;99.90;;;;;;2094098;28;20191;-73
2022/09/24 03:08:46;;;;;;;14.10;10.70;;;8.60;99.90;;;;;;2091844;28;20027;-72
2022/09/24 03:09:47;;;;;;;11.77;10.50;;;8.60;99.90;;;;;;2097254;28;20032;-72
2022/09/24 03:10:49;;;;;;;12.15;10.50;;;8.70;99.90;;;;;;2097045;28;20566;-73
2022/09/24 03:11:50;;;;;;;11.82;10.35;;;8.70;99.90;;;;;;2088792;28;20036;-73
2022/09/24 03:12:51;;;;;;;13.55;10.63;;;8.70;99.90;;;;;;2097014;28;20028;-73
2022/09/24 03:13:51;;;;;;;12.68;10.60;;;8.70;99.90;;;;;;2106084;28;20049;-73
2022/09/24 03:14:52;;;;;;;12.50;10.65;;;8.70;99.90;;;;;;2106198;28;20581;-73
2022/09/24 03:15:53;;;;;;;14.70;10.70;;;8.70;99.90;;;;;;2106278;28;20042;-73
2022/09/24 03:16:53;;;;;;;12.63;10.30;;;8.70;99.90;;;;;;2106260;28;20052;-73
2022/09/24 03:17:54;;;;;;;12.48;10.65;;;8.60;99.90;;;;;;2106314;28;20036;-74
2022/09/24 03:18:55;;;;;;;13.10;10.82;;;8.60;99.90;;;;;;2106254;28;20028;-74
2022/09/24 03:19:55;;;;;;;13.82;11.73;;;8.60;99.90;;;;;;2106350;28;20024;-73
2022/09/24 03:20:58;;;;;;;14.25;11.48;;;8.60;99.90;;;;;;2101859;28;20031;-73
2022/09/24 03:21:59;;;;;;;13.70;11.20;;;8.70;99.90;;;;;;2097640;28;20028;-74
2022/09/24 03:22:59;;;;;;;13.30;11.07;;;8.70;99.90;;;;;;2097539;28;20021;-74
2022/09/24 03:24:00;;;;;;;13.20;11.38;;;8.70;99.90;;;;;;2098355;28;20122;-73
2022/09/24 03:25:02;;;;;;;13.57;10.98;;;8.70;99.90;;;;;;2098161;28;20029;-73
2022/09/24 03:26:03;;;;;;;15.30;11.10;;;8.70;99.90;;;;;;2098398;28;20039;-74
2022/09/24 03:27:10;;;;;;;13.60;10.90;;;8.70;99.90;;;;;;2098262;28;20025;-73
2022/09/24 03:28:12;;;;;;;11.70;10.00;;;8.60;99.90;;;;;;2087798;28;20025;-75
2022/09/24 03:30:58;;;;;;;11.60;10.30;;;8.70;99.90;;;;;;2088432;28;20618;-74
2022/09/24 03:31:01;;;;;;;13.63;10.95;;;8.60;99.90;;;;;;2092783;28;20124;-75
2022/09/24 03:32:02;;;;;;;12.02;10.25;;;8.60;99.90;;;;;;2091091;28;20025;-75
2022/09/24 03:33:02;;;;;;;11.30;10.10;;;8.60;99.90;;;;;;2097157;28;20075;-75
2022/09/24 03:34:03;;;;;;;12.60;10.57;;;8.60;99.90;;;;;;2106038;28;20024;-75
2022/09/24 03:35:04;;;;;;;13.43;10.32;;;8.60;99.90;;;;;;2106229;28;20028;-72
2022/09/24 03:36:17;;;;;;;12.65;10.60;;;8.60;99.90;;;;;;2091628;28;20020;-73
2022/09/24 03:37:18;;;;;;;12.95;10.80;;;8.60;99.90;;;;;;2091235;28;20052;-73
2022/09/24 03:38:19;;;;;;;13.18;11.00;;;8.60;99.90;;;;;;2098034;28;20082;-73
2022/09/24 03:39:19;;;;;;;12.90;11.23;;;8.60;99.90;;;;;;2098191;28;20067;-73
2022/09/24 03:40:20;;;;;;;11.82;10.10;;;8.50;99.90;;;;;;2098196;28;20093;-73
2022/09/24 03:41:22;;;;;;;12.40;10.70;;;8.60;99.90;;;;;;2097806;28;20058;-73
2022/09/24 03:42:23;;;;;;;15.20;10.90;;;8.60;99.90;;;;;;2098085;28;20090;-74
2022/09/24 03:43:24;;;;;;;12.98;10.82;;;8.60;99.90;;;;;;2089207;28;20167;-74
2022/09/24 03:44:26;;;;;;;13.30;10.80;;;8.60;99.90;;;;;;2089314;28;20060;-74
2022/09/24 03:45:26;;;;;;;13.48;11.00;;;8.60;99.90;;;;;;2098770;28;20036;-74
2022/09/24 03:46:28;;;;;;;11.50;9.90;;;8.60;99.90;;;;;;2096478;28;20092;-73
2022/09/24 03:47:30;;;;;;;14.18;10.73;;;8.60;99.90;;;;;;2088948;28;20033;-74
2022/09/24 03:48:31;;;;;;;12.38;10.50;;;8.50;99.90;;;;;;2089579;28;20104;-74
2022/09/24 03:49:32;;;;;;;12.30;10.60;;;8.50;99.90;;;;;;2089033;28;20025;-74
2022/09/24 03:50:36;;;;;;;12.75;11.05;;;8.50;99.90;;;;;;2089046;28;20033;-74
2022/09/24 03:51:37;;;;;;;14.52;10.95;;;8.50;99.90;;;;;;2088992;28;20032;-74
2022/09/24 03:52:38;;;;;;;13.63;10.88;;;8.40;99.90;;;;;;2088862;28;20029;-73
2022/09/24 03:53:39;;;;;;;13.32;11.30;;;8.40;99.90;;;;;;2079881;28;20033;-73
2022/09/24 03:54:40;;;;;;;13.00;10.60;;;8.40;99.90;;;;;;2080060;28;20109;-73
2022/09/24 03:55:51;;;;;;;11.77;10.48;;;8.40;99.90;;;;;;2089182;28;20276;-73
2022/09/24 03:56:52;;;;;;;13.35;10.95;;;8.40;99.90;;;;;;2088629;28;20044;-73
2022/09/24 03:57:52;;;;;;;12.50;11.15;;;8.30;99.90;;;;;;2088832;28;20033;-73
2022/09/24 03:58:53;;;;;;;12.35;11.05;;;8.30;99.90;;;;;;2088939;28;20088;-75
2022/09/24 03:59:54;;;;;;;12.90;10.60;;;8.30;99.90;;;;;;2080383;28;20123;-73
2022/09/24 04:00:56;;;;;;;12.63;10.98;;;8.30;99.90;;;;;;2080342;28;20083;-73
2022/09/24 04:01:56;;;;;;;12.38;10.93;;;8.30;99.90;;;;;;2088659;28;20526;-73
2022/09/24 04:02:57;;;;;;;15.52;12.82;;;8.30;99.90;;;;;;2101927;28;20019;-73
2022/09/24 04:03:59;;;;;;;14.32;12.50;;;8.30;99.90;;;;;;2105541;28;20027;-73
2022/09/24 04:05:00;;;;;;;13.27;11.18;;;8.30;99.90;;;;;;2100237;28;20162;-73
2022/09/24 04:06:01;;;;;;;13.40;11.88;;;8.30;99.90;;;;;;2080161;28;20021;-73
2022/09/24 04:07:02;;;;;;;13.40;11.13;;;8.30;99.90;;;;;;2079701;28;20081;-73
2022/09/24 04:08:04;;;;;;;14.10;12.30;;;8.30;99.90;;;;;;2097123;28;20032;-73
2022/09/24 04:09:05;;;;;;;13.82;11.40;;;8.20;99.90;;;;;;2097244;28;20034;-73
2022/09/24 04:10:06;;;;;;;15.02;11.90;;;8.20;99.90;;;;;;2088519;28;20029;-73
2022/09/24 04:11:07;;;;;;;14.77;12.43;;;8.20;99.90;;;;;;2080073;28;20021;-73
2022/09/24 04:12:08;;;;;;;14.43;11.82;;;8.20;99.90;;;;;;2087813;28;20543;-73
2022/09/24 04:13:08;;;;;;;14.43;12.32;;;8.20;99.90;;;;;;2097492;28;20021;-74
2022/09/24 04:14:09;;;;;;;14.52;12.18;;;8.10;99.90;;;;;;2097276;28;20407;-74
2022/09/24 04:15:10;;;;;;;14.35;12.32;;;8.10;99.90;;;;;;2088296;28;20037;-74
2022/09/24 04:16:11;;;;;;;15.77;12.45;;;8.10;99.90;;;;;;2079741;28;20397;-74
2022/09/24 04:17:13;;;;;;;14.77;12.07;;;8.10;99.90;;;;;;2087732;28;20086;-73
2022/09/24 04:18:13;;;;;;;14.25;12.10;;;8.10;99.90;;;;;;2103915;28;20016;-74
2022/09/24 04:19:14;;;;;;;16.27;12.82;;;8.10;99.90;;;;;;2105364;28;20023;-73
2022/09/24 04:20:15;;;;;;;15.88;13.32;;;8.10;99.90;;;;;;2096309;28;20098;-74
2022/09/24 04:21:16;;;;;;;15.88;12.98;;;8.00;99.90;;;;;;2096409;28;20032;-74
2022/09/24 04:22:16;;;;;;;15.48;13.10;;;8.00;99.90;;;;;;2096139;28;20106;-74
2022/09/24 04:23:17;;;;;;;17.38;13.60;;;8.00;99.90;;;;;;2096281;28;20066;-73
2022/09/24 04:24:18;;;;;;;15.52;12.68;;;8.00;99.90;;;;;;2103459;28;20023;-73
2022/09/24 04:25:19;;;;;;;14.20;12.63;;;8.00;99.90;;;;;;2095204;28;20479;-73
2022/09/24 04:26:20;;;;;;;15.75;12.52;;;8.00;99.90;;;;;;2071815;28;20161;-73
2022/09/24 04:27:21;;;;;;;14.77;11.90;;;8.00;99.90;;;;;;2087765;28;20122;-73
2022/09/24 04:28:21;;;;;;;15.85;13.07;;;8.00;99.90;;;;;;2105284;28;20055;-73
2022/09/24 04:29:22;;;;;;;14.15;12.43;;;8.00;99.90;;;;;;2105166;28;20107;-73
2022/09/24 04:30:24;;;;;;;15.55;12.82;;;8.00;99.90;;;;;;2105244;28;20031;-73
2022/09/24 04:31:26;;;;;;;14.32;12.27;;;8.00;99.90;;;;;;2105265;28;20716;-73
2022/09/24 04:32:26;;;;;;;14.20;12.55;;;8.00;99.90;;;;;;2099538;28;20040;-73
2022/09/24 04:33:27;;;;;;;15.70;13.88;;;8.00;99.90;;;;;;2104235;28;20032;-73
2022/09/24 04:34:27;;;;;;;15.43;12.82;;;8.00;99.90;;;;;;2097250;28;20067;-73
2022/09/24 04:35:30;;;;;;;17.63;13.63;;;8.00;99.90;;;;;;2104943;28;20027;-74
2022/09/24 04:36:31;;;;;;;20.10;13.95;;;8.00;99.90;;;;;;2105332;28;20046;-74
2022/09/24 04:37:32;;;;;;;15.43;12.80;;;8.00;99.90;;;;;;2105475;28;20032;-73
2022/09/24 04:38:32;;;;;;;16.88;13.27;;;8.00;99.90;;;;;;2105321;28;20172;-74
2022/09/24 04:39:33;;;;;;;16.52;13.55;;;7.90;99.90;;;;;;2094473;28;20020;-74
2022/09/24 04:40:34;;;;;;;16.45;13.40;;;7.90;99.90;;;;;;2089823;28;20090;-74
2022/09/24 04:41:36;;;;;;;16.73;13.20;;;7.90;99.90;;;;;;2103428;28;20063;-74
2022/09/24 04:42:38;;;;;;;16.63;13.60;;;7.90;99.90;;;;;;2096730;28;20064;-74
2022/09/24 04:43:38;;;;;;;18.10;13.32;;;7.90;99.90;;;;;;2096980;28;20417;-73
2022/09/24 04:44:39;;;;;;;16.50;13.07;;;7.90;99.90;;;;;;2087843;28;20124;-74
2022/09/24 04:45:42;;;;;;;16.77;14.48;;;7.90;99.90;;;;;;2087917;28;20503;-74
2022/09/24 04:46:42;;;;;;;17.98;13.65;;;7.90;99.90;;;;;;2096427;28;20418;-73
2022/09/24 04:47:43;;;;;;;16.83;13.65;;;7.90;99.90;;;;;;2096759;28;20029;-74
2022/09/24 04:48:44;;;;;;;17.98;13.65;;;7.90;99.90;;;;;;2087652;28;20021;-74
2022/09/24 04:49:44;;;;;;;15.23;13.63;;;7.90;99.90;;;;;;2087995;28;20096;-73
2022/09/24 04:50:45;;;;;;;18.15;13.35;;;8.00;99.90;;;;;;2096804;28;20035;-73
2022/09/24 04:51:46;;;;;;;17.00;13.63;;;8.00;99.90;;;;;;2097706;28;20685;-74
2022/09/24 04:52:47;;;;;;;16.55;13.15;;;7.90;99.90;;;;;;2105015;28;20043;-73
2022/09/24 04:53:49;;;;;;;15.75;13.10;;;7.90;99.90;;;;;;2105064;28;20135;-73
2022/09/24 04:54:49;;;;;;;17.50;13.63;;;7.90;99.90;;;;;;2104997;28;20544;-74
2022/09/24 04:55:50;;;;;;;15.27;12.82;;;7.90;99.90;;;;;;2105109;28;20084;-74
2022/09/24 04:56:51;;;;;;;15.30;13.50;;;7.90;99.90;;;;;;2096778;28;20025;-73
2022/09/24 04:57:55;;;;;;;14.57;12.40;;;7.90;99.90;;;;;;2096257;28;20067;-74
2022/09/24 04:58:56;;;;;;;15.80;12.90;;;7.90;99.90;;;;;;2103402;28;20023;-73
2022/09/24 04:59:57;;;;;;;14.32;12.38;;;7.90;99.90;;;;;;2091270;28;20076;-73
2022/09/24 05:01:02;;;;;;;14.60;12.05;;;7.90;99.90;;;;;;2092832;28;20112;-73
2022/09/24 05:02:05;;;;;;;14.45;12.00;;;7.90;99.90;;;;;;2105019;28;20119;-73
2022/09/24 05:03:06;;;;;;;13.43;11.30;;;7.90;99.90;;;;;;2096163;28;20024;-73
2022/09/24 05:04:07;;;;;;;13.18;11.60;;;7.90;99.90;;;;;;2096237;28;20028;-73
2022/09/24 05:05:08;;;;;;;13.40;11.43;;;7.90;99.90;;;;;;2104868;28;20028;-73
2022/09/24 05:06:09;;;;;;;13.57;11.60;;;7.90;99.90;;;;;;2105276;28;20029;-73
2022/09/24 05:07:10;;;;;;;15.00;11.70;;;7.90;99.90;;;;;;2096021;28;20104;-74
2022/09/24 05:08:11;;;;;;;13.73;11.40;;;7.90;99.90;;;;;;2095896;28;20098;-73
2022/09/24 05:09:11;;;;;;;13.50;11.57;;;7.90;99.90;;;;;;2105144;28;20123;-73
2022/09/24 05:10:12;;;;;;;13.98;10.98;;;7.90;99.90;;;;;;2105492;28;20099;-73
2022/09/24 05:11:13;;;;;;;13.10;11.00;;;8.00;99.90;;;;;;2105444;28;20028;-74
2022/09/24 05:12:13;;;;;;;13.35;11.52;;;8.00;99.90;;;;;;2096393;28;20028;-73
2022/09/24 05:13:14;;;;;;;14.20;11.30;;;8.00;99.90;;;;;;2093784;28;20020;-73
2022/09/24 05:14:14;;;;;;;15.18;11.85;;;8.00;99.90;;;;;;2087652;28;20115;-73
2022/09/24 05:15:17;;;;;;;15.82;12.02;;;8.10;99.90;;;;;;2088811;28;20025;-74
2022/09/24 05:16:18;;;;;;;15.13;12.25;;;8.10;99.90;;;;;;2096654;28;20060;-74
2022/09/24 05:17:19;;;;;;;14.98;12.23;;;8.10;99.90;;;;;;2096675;28;20489;-73
2022/09/24 05:18:20;;;;;;;13.40;11.30;;;8.20;99.90;;;;;;2097037;28;20033;-73
2022/09/24 05:19:20;;;;;;;13.52;11.68;;;8.20;99.90;;;;;;2096230;28;20112;-74
2022/09/24 05:20:21;;;;;;;12.57;11.10;;;8.20;99.90;;;;;;2096708;28;20024;-74
2022/09/24 05:21:22;;;;;;;13.75;11.00;;;8.30;99.90;;;;;;2088284;28;20117;-71
2022/09/24 05:22:24;;;;;;;13.38;10.65;;;8.30;99.90;;;;;;2104368;28;20043;-72
2022/09/24 05:23:25;;;;;;;13.38;11.38;;;8.30;99.90;;;;;;2096647;28;20025;-72
2022/09/24 05:24:26;;;;;;;13.30;11.02;;;8.40;99.90;;;;;;2104888;28;20016;-74
2022/09/24 05:25:29;;;;;;;13.45;10.88;;;8.40;99.90;;;;;;2092252;28;20013;-76
2022/09/24 05:27:55;;;;;;;13.50;11.20;;;8.50;99.90;;;;;;2087763;28;20767;-76
2022/09/24 05:28:56;;;;;;;14.25;10.90;;;8.50;99.90;;;;;;2092303;28;20050;-75
2022/09/24 05:29:56;;;;;;;13.93;10.98;;;8.50;99.90;;;;;;2099789;28;20633;-74
2022/09/24 05:30:58;;;;;;;14.30;11.52;;;8.50;99.90;;;;;;2092551;28;20024;-77
2022/09/24 05:32:04;;;;;;;14.05;10.85;;;8.60;99.90;;;;;;2092351;28;20033;-72
2022/09/24 05:33:05;;;;;;;14.13;11.07;;;8.50;99.90;;;;;;2096437;28;20025;-72
2022/09/24 05:34:05;;;;;;;12.57;10.80;;;8.60;99.90;;;;;;2096345;28;20269;-73